sensor_id;sensor_type;location;lat;lon;timestamp;P1;durP1;ratioP1;P2;durP2;ratioP2
21101;SDS011;10709;49.006;12.100;2023-09-12T00:01:21;14.82;;;13.32;;
21101;SDS011;10709;49.006;12.100;2023-09-12T00:03:49;14.80;;;13.30;;
21101;SDS011;10709;49.006;12.100;2023-09-12T00:06:16;17.13;;;14.52;;
21101;SDS011;10709;49.006;12.100;2023-09-12T00:08:42;15.50;;;13.82;;
21101;SDS011;10709;49.006;12.100;2023-09-12T00:11:09;14.38;;;12.98;;
21101;SDS011;10709;49.006;12.100;2023-09-12T00:13:38;14.98;;;13.55;;
21101;SDS011;10709;49.006;12.100;2023-09-12T00:16:06;14.68;;;13.15;;
21101;SDS011;10709;49.006;12.100;2023-09-12T00:18:39;15.35;;;13.98;;
21101;SDS011;10709;49.006;12.100;2023-09-12T00:21:06;14.50;;;13.13;;
21101;SDS011;10709;49.006;12.100;2023-09-12T00:23:33;14.65;;;13.18;;
21101;SDS011;10709;49.006;12.100;2023-09-12T00:26:00;14.23;;;12.77;;
21101;SDS011;10709;49.006;12.100;2023-09-12T00:28:26;15.27;;;13.68;;
21101;SDS011;10709;49.006;12.100;2023-09-12T00:30:53;16.00;;;14.40;;
21101;SDS011;10709;49.006;12.100;2023-09-12T00:33:21;14.35;;;12.85;;
21101;SDS011;10709;49.006;12.100;2023-09-12T00:35:48;14.50;;;12.98;;
21101;SDS011;10709;49.006;12.100;2023-09-12T00:38:14;13.93;;;12.60;;
21101;SDS011;10709;49.006;12.100;2023-09-12T00:40:41;13.57;;;12.32;;
21101;SDS011;10709;49.006;12.100;2023-09-12T00:43:07;14.20;;;12.70;;
21101;SDS011;10709;49.006;12.100;2023-09-12T00:45:34;13.98;;;12.55;;
21101;SDS011;10709;49.006;12.100;2023-09-12T00:48:02;14.60;;;13.15;;
21101;SDS011;10709;49.006;12.100;2023-09-12T00:50:31;14.98;;;13.40;;
21101;SDS011;10709;49.006;12.100;2023-09-12T00:52:59;15.27;;;13.65;;
21101;SDS011;10709;49.006;12.100;2023-09-12T00:55:29;14.77;;;13.32;;
21101;SDS011;10709;49.006;12.100;2023-09-12T00:57:59;14.25;;;12.68;;
21101;SDS011;10709;49.006;12.100;2023-09-12T01:00:27;15.80;;;14.00;;
21101;SDS011;10709;49.006;12.100;2023-09-12T01:02:54;14.35;;;13.05;;
21101;SDS011;10709;49.006;12.100;2023-09-12T01:05:22;13.65;;;12.25;;
21101;SDS011;10709;49.006;12.100;2023-09-12T01:07:49;14.13;;;12.38;;
21101;SDS011;10709;49.006;12.100;2023-09-12T01:10:16;14.20;;;12.70;;
21101;SDS011;10709;49.006;12.100;2023-09-12T01:12:43;14.63;;;13.02;;
21101;SDS011;10709;49.006;12.100;2023-09-12T01:15:10;14.13;;;12.73;;
21101;SDS011;10709;49.006;12.100;2023-09-12T01:17:41;14.68;;;12.55;;
21101;SDS011;10709;49.006;12.100;2023-09-12T01:20:17;13.88;;;12.48;;
21101;SDS011;10709;49.006;12.100;2023-09-12T01:22:54;13.95;;;12.55;;
21101;SDS011;10709;49.006;12.100;2023-09-12T01:28:30;12.88;;;11.68;;
21101;SDS011;10709;49.006;12.100;2023-09-12T01:31:01;14.25;;;12.85;;
21101;SDS011;10709;49.006;12.100;2023-09-12T01:33:29;14.50;;;13.10;;
21101;SDS011;10709;49.006;12.100;2023-09-12T01:35:55;14.23;;;12.93;;
21101;SDS011;10709;49.006;12.100;2023-09-12T01:38:22;14.38;;;12.98;;
21101;SDS011;10709;49.006;12.100;2023-09-12T01:40:49;14.00;;;12.70;;
21101;SDS011;10709;49.006;12.100;2023-09-12T01:43:19;13.70;;;12.38;;
21101;SDS011;10709;49.006;12.100;2023-09-12T01:45:50;14.00;;;12.48;;
21101;SDS011;10709;49.006;12.100;2023-09-12T01:48:21;14.10;;;12.73;;
21101;SDS011;10709;49.006;12.100;2023-09-12T01:50:57;13.90;;;12.45;;
21101;SDS011;10709;49.006;12.100;2023-09-12T01:53:25;14.38;;;12.88;;
21101;SDS011;10709;49.006;12.100;2023-09-12T01:55:51;14.98;;;12.48;;
21101;SDS011;10709;49.006;12.100;2023-09-12T01:58:18;13.98;;;12.63;;
21101;SDS011;10709;49.006;12.100;2023-09-12T02:00:45;14.40;;;12.98;;
21101;SDS011;10709;49.006;12.100;2023-09-12T02:03:11;13.88;;;12.48;;
21101;SDS011;10709;49.006;12.100;2023-09-12T02:05:38;14.32;;;12.85;;
21101;SDS011;10709;49.006;12.100;2023-09-12T02:08:06;14.65;;;13.10;;
21101;SDS011;10709;49.006;12.100;2023-09-12T02:10:32;14.55;;;13.15;;
21101;SDS011;10709;49.006;12.100;2023-09-12T02:12:59;14.70;;;13.10;;
21101;SDS011;10709;49.006;12.100;2023-09-12T02:15:26;13.82;;;12.48;;
21101;SDS011;10709;49.006;12.100;2023-09-12T02:17:52;14.63;;;13.13;;
21101;SDS011;10709;49.006;12.100;2023-09-12T02:20:19;15.38;;;13.82;;
21101;SDS011;10709;49.006;12.100;2023-09-12T02:22:47;15.20;;;13.57;;
21101;SDS011;10709;49.006;12.100;2023-09-12T02:25:13;14.68;;;13.27;;
21101;SDS011;10709;49.006;12.100;2023-09-12T02:27:40;14.88;;;13.30;;
21101;SDS011;10709;49.006;12.100;2023-09-12T02:30:06;14.25;;;12.77;;
21101;SDS011;10709;49.006;12.100;2023-09-12T02:32:33;14.23;;;12.75;;
21101;SDS011;10709;49.006;12.100;2023-09-12T02:35:00;14.98;;;13.48;;
21101;SDS011;10709;49.006;12.100;2023-09-12T02:37:27;14.50;;;13.15;;
21101;SDS011;10709;49.006;12.100;2023-09-12T02:39:53;14.98;;;13.50;;
21101;SDS011;10709;49.006;12.100;2023-09-12T02:42:20;15.18;;;13.60;;
21101;SDS011;10709;49.006;12.100;2023-09-12T02:44:47;16.08;;;14.02;;
21101;SDS011;10709;49.006;12.100;2023-09-12T02:47:14;13.95;;;12.43;;
21101;SDS011;10709;49.006;12.100;2023-09-12T02:49:40;17.17;;;15.57;;
21101;SDS011;10709;49.006;12.100;2023-09-12T02:52:07;17.15;;;15.25;;
21101;SDS011;10709;49.006;12.100;2023-09-12T02:54:34;16.33;;;14.52;;
21101;SDS011;10709;49.006;12.100;2023-09-12T02:57:00;15.63;;;13.48;;
21101;SDS011;10709;49.006;12.100;2023-09-12T02:59:27;16.65;;;13.63;;
21101;SDS011;10709;49.006;12.100;2023-09-12T03:01:53;15.85;;;13.10;;
21101;SDS011;10709;49.006;12.100;2023-09-12T03:04:20;15.85;;;13.88;;
21101;SDS011;10709;49.006;12.100;2023-09-12T03:06:47;15.52;;;13.90;;
21101;SDS011;10709;49.006;12.100;2023-09-12T03:09:13;15.63;;;13.25;;
21101;SDS011;10709;49.006;12.100;2023-09-12T03:11:40;14.15;;;12.75;;
21101;SDS011;10709;49.006;12.100;2023-09-12T03:14:07;13.48;;;12.10;;
21101;SDS011;10709;49.006;12.100;2023-09-12T03:16:33;14.57;;;13.05;;
21101;SDS011;10709;49.006;12.100;2023-09-12T03:19:00;15.05;;;12.93;;
21101;SDS011;10709;49.006;12.100;2023-09-12T03:21:28;13.38;;;11.82;;
21101;SDS011;10709;49.006;12.100;2023-09-12T03:23:55;14.32;;;12.63;;
21101;SDS011;10709;49.006;12.100;2023-09-12T03:26:22;13.90;;;12.40;;
21101;SDS011;10709;49.006;12.100;2023-09-12T03:28:49;14.15;;;12.70;;
21101;SDS011;10709;49.006;12.100;2023-09-12T03:31:18;14.77;;;13.27;;
21101;SDS011;10709;49.006;12.100;2023-09-12T03:33:46;13.95;;;12.43;;
21101;SDS011;10709;49.006;12.100;2023-09-12T03:36:16;13.25;;;12.00;;
21101;SDS011;10709;49.006;12.100;2023-09-12T03:38:46;14.35;;;12.93;;
21101;SDS011;10709;49.006;12.100;2023-09-12T03:41:13;14.82;;;13.05;;
21101;SDS011;10709;49.006;12.100;2023-09-12T03:43:39;13.63;;;12.23;;
21101;SDS011;10709;49.006;12.100;2023-09-12T03:46:06;13.30;;;12.00;;
21101;SDS011;10709;49.006;12.100;2023-09-12T03:48:33;14.07;;;12.68;;
21101;SDS011;10709;49.006;12.100;2023-09-12T03:51:02;13.88;;;12.23;;
21101;SDS011;10709;49.006;12.100;2023-09-12T03:53:30;13.82;;;12.32;;
21101;SDS011;10709;49.006;12.100;2023-09-12T03:55:58;12.85;;;11.57;;
21101;SDS011;10709;49.006;12.100;2023-09-12T03:58:25;13.48;;;12.07;;
21101;SDS011;10709;49.006;12.100;2023-09-12T04:00:52;13.63;;;12.23;;
21101;SDS011;10709;49.006;12.100;2023-09-12T04:03:18;14.30;;;12.90;;
21101;SDS011;10709;49.006;12.100;2023-09-12T04:05:47;12.80;;;11.50;;
21101;SDS011;10709;49.006;12.100;2023-09-12T04:08:14;13.77;;;12.27;;
21101;SDS011;10709;49.006;12.100;2023-09-12T04:10:41;13.82;;;12.38;;
21101;SDS011;10709;49.006;12.100;2023-09-12T04:13:09;13.65;;;12.30;;
21101;SDS011;10709;49.006;12.100;2023-09-12T04:15:36;14.13;;;12.63;;
21101;SDS011;10709;49.006;12.100;2023-09-12T04:18:02;13.88;;;12.27;;
21101;SDS011;10709;49.006;12.100;2023-09-12T04:20:29;14.05;;;12.65;;
21101;SDS011;10709;49.006;12.100;2023-09-12T04:22:56;13.40;;;12.00;;
21101;SDS011;10709;49.006;12.100;2023-09-12T04:25:23;13.80;;;12.32;;
21101;SDS011;10709;49.006;12.100;2023-09-12T04:27:50;13.68;;;12.38;;
21101;SDS011;10709;49.006;12.100;2023-09-12T04:30:16;13.57;;;12.20;;
21101;SDS011;10709;49.006;12.100;2023-09-12T04:32:43;14.90;;;12.43;;
21101;SDS011;10709;49.006;12.100;2023-09-12T04:35:09;13.88;;;12.50;;
21101;SDS011;10709;49.006;12.100;2023-09-12T04:37:36;14.35;;;12.85;;
21101;SDS011;10709;49.006;12.100;2023-09-12T04:40:03;15.02;;;13.10;;
21101;SDS011;10709;49.006;12.100;2023-09-12T04:42:32;14.15;;;12.68;;
21101;SDS011;10709;49.006;12.100;2023-09-12T04:44:59;13.55;;;12.07;;
21101;SDS011;10709;49.006;12.100;2023-09-12T04:47:25;13.80;;;12.40;;
21101;SDS011;10709;49.006;12.100;2023-09-12T04:49:54;13.38;;;12.05;;
21101;SDS011;10709;49.006;12.100;2023-09-12T04:52:20;15.20;;;13.02;;
21101;SDS011;10709;49.006;12.100;2023-09-12T04:54:46;13.57;;;12.27;;
21101;SDS011;10709;49.006;12.100;2023-09-12T04:57:13;14.50;;;12.73;;
21101;SDS011;10709;49.006;12.100;2023-09-12T04:59:42;13.45;;;12.05;;
21101;SDS011;10709;49.006;12.100;2023-09-12T05:02:09;14.40;;;12.40;;
21101;SDS011;10709;49.006;12.100;2023-09-12T05:04:35;14.68;;;13.20;;
21101;SDS011;10709;49.006;12.100;2023-09-12T05:07:02;14.07;;;12.48;;
21101;SDS011;10709;49.006;12.100;2023-09-12T05:09:29;13.70;;;12.30;;
21101;SDS011;10709;49.006;12.100;2023-09-12T05:11:55;14.50;;;12.68;;
21101;SDS011;10709;49.006;12.100;2023-09-12T05:14:22;15.52;;;13.40;;
21101;SDS011;10709;49.006;12.100;2023-09-12T05:16:49;16.20;;;13.25;;
21101;SDS011;10709;49.006;12.100;2023-09-12T05:19:16;14.65;;;13.05;;
21101;SDS011;10709;49.006;12.100;2023-09-12T05:21:42;14.50;;;13.00;;
21101;SDS011;10709;49.006;12.100;2023-09-12T05:24:10;16.15;;;13.13;;
21101;SDS011;10709;49.006;12.100;2023-09-12T05:26:36;14.95;;;13.25;;
21101;SDS011;10709;49.006;12.100;2023-09-12T05:29:03;16.35;;;13.40;;
21101;SDS011;10709;49.006;12.100;2023-09-12T05:31:29;14.85;;;13.25;;
21101;SDS011;10709;49.006;12.100;2023-09-12T05:33:58;15.05;;;13.43;;
21101;SDS011;10709;49.006;12.100;2023-09-12T05:36:24;15.77;;;13.40;;
21101;SDS011;10709;49.006;12.100;2023-09-12T05:38:51;14.93;;;13.30;;
21101;SDS011;10709;49.006;12.100;2023-09-12T05:41:18;15.38;;;13.77;;
21101;SDS011;10709;49.006;12.100;2023-09-12T05:43:44;15.77;;;14.18;;
21101;SDS011;10709;49.006;12.100;2023-09-12T05:46:11;14.63;;;13.13;;
21101;SDS011;10709;49.006;12.100;2023-09-12T05:48:38;15.00;;;13.40;;
21101;SDS011;10709;49.006;12.100;2023-09-12T05:51:05;14.35;;;12.88;;
21101;SDS011;10709;49.006;12.100;2023-09-12T05:53:31;14.52;;;13.02;;
21101;SDS011;10709;49.006;12.100;2023-09-12T05:55:58;15.50;;;13.85;;
21101;SDS011;10709;49.006;12.100;2023-09-12T05:58:24;15.80;;;14.10;;
21101;SDS011;10709;49.006;12.100;2023-09-12T06:00:51;16.40;;;14.70;;
21101;SDS011;10709;49.006;12.100;2023-09-12T06:03:18;16.92;;;14.90;;
21101;SDS011;10709;49.006;12.100;2023-09-12T06:05:45;17.52;;;15.73;;
21101;SDS011;10709;49.006;12.100;2023-09-12T06:08:11;16.30;;;14.60;;
21101;SDS011;10709;49.006;12.100;2023-09-12T06:10:38;16.77;;;15.02;;
21101;SDS011;10709;49.006;12.100;2023-09-12T06:13:04;18.38;;;15.98;;
21101;SDS011;10709;49.006;12.100;2023-09-12T06:15:31;16.98;;;15.27;;
21101;SDS011;10709;49.006;12.100;2023-09-12T06:17:58;22.13;;;17.23;;
21101;SDS011;10709;49.006;12.100;2023-09-12T06:20:24;19.35;;;17.38;;
21101;SDS011;10709;49.006;12.100;2023-09-12T06:22:53;18.13;;;16.15;;
21101;SDS011;10709;49.006;12.100;2023-09-12T06:25:19;18.83;;;16.88;;
21101;SDS011;10709;49.006;12.100;2023-09-12T06:27:46;18.92;;;16.20;;
21101;SDS011;10709;49.006;12.100;2023-09-12T06:30:13;24.30;;;18.90;;
21101;SDS011;10709;49.006;12.100;2023-09-12T06:32:42;19.73;;;17.70;;
21101;SDS011;10709;49.006;12.100;2023-09-12T06:35:08;18.40;;;16.42;;
21101;SDS011;10709;49.006;12.100;2023-09-12T06:37:37;21.55;;;17.70;;
21101;SDS011;10709;49.006;12.100;2023-09-12T06:40:06;20.10;;;18.20;;
21101;SDS011;10709;49.006;12.100;2023-09-12T06:42:33;18.77;;;16.88;;
21101;SDS011;10709;49.006;12.100;2023-09-12T06:45:00;18.85;;;16.95;;
21101;SDS011;10709;49.006;12.100;2023-09-12T06:47:26;19.88;;;17.85;;
21101;SDS011;10709;49.006;12.100;2023-09-12T06:49:53;19.63;;;17.10;;
21101;SDS011;10709;49.006;12.100;2023-09-12T06:52:21;20.45;;;17.63;;
21101;SDS011;10709;49.006;12.100;2023-09-12T06:54:48;18.10;;;16.30;;
21101;SDS011;10709;49.006;12.100;2023-09-12T06:57:15;17.60;;;15.80;;
21101;SDS011;10709;49.006;12.100;2023-09-12T06:59:42;19.05;;;17.15;;
21101;SDS011;10709;49.006;12.100;2023-09-12T07:02:08;20.55;;;18.35;;
21101;SDS011;10709;49.006;12.100;2023-09-12T07:04:36;21.25;;;19.02;;
21101;SDS011;10709;49.006;12.100;2023-09-12T07:07:03;21.15;;;17.90;;
21101;SDS011;10709;49.006;12.100;2023-09-12T07:09:30;20.67;;;18.58;;
21101;SDS011;10709;49.006;12.100;2023-09-12T07:11:59;20.02;;;17.83;;
21101;SDS011;10709;49.006;12.100;2023-09-12T07:14:25;23.00;;;18.55;;
21101;SDS011;10709;49.006;12.100;2023-09-12T07:16:52;20.85;;;18.70;;
21101;SDS011;10709;49.006;12.100;2023-09-12T07:19:19;20.58;;;17.40;;
21101;SDS011;10709;49.006;12.100;2023-09-12T07:21:46;20.60;;;18.48;;
21101;SDS011;10709;49.006;12.100;2023-09-12T07:24:13;20.77;;;18.75;;
21101;SDS011;10709;49.006;12.100;2023-09-12T07:26:39;20.70;;;18.48;;
21101;SDS011;10709;49.006;12.100;2023-09-12T07:29:06;20.42;;;18.42;;
21101;SDS011;10709;49.006;12.100;2023-09-12T07:31:33;20.45;;;18.40;;
21101;SDS011;10709;49.006;12.100;2023-09-12T07:34:00;19.35;;;17.40;;
21101;SDS011;10709;49.006;12.100;2023-09-12T07:36:26;20.02;;;18.02;;
21101;SDS011;10709;49.006;12.100;2023-09-12T07:38:53;21.67;;;18.52;;
21101;SDS011;10709;49.006;12.100;2023-09-12T07:41:20;20.42;;;17.48;;
21101;SDS011;10709;49.006;12.100;2023-09-12T07:43:46;20.33;;;18.13;;
21101;SDS011;10709;49.006;12.100;2023-09-12T07:46:13;20.65;;;18.35;;
21101;SDS011;10709;49.006;12.100;2023-09-12T07:48:42;19.48;;;17.65;;
21101;SDS011;10709;49.006;12.100;2023-09-12T07:51:15;17.83;;;16.13;;
21101;SDS011;10709;49.006;12.100;2023-09-12T07:53:44;19.38;;;16.50;;
21101;SDS011;10709;49.006;12.100;2023-09-12T07:56:11;20.00;;;17.85;;
21101;SDS011;10709;49.006;12.100;2023-09-12T07:58:39;19.30;;;17.25;;
21101;SDS011;10709;49.006;12.100;2023-09-12T08:01:07;22.90;;;19.60;;
21101;SDS011;10709;49.006;12.100;2023-09-12T08:03:36;19.05;;;17.17;;
21101;SDS011;10709;49.006;12.100;2023-09-12T08:06:05;19.38;;;16.70;;
21101;SDS011;10709;49.006;12.100;2023-09-12T08:08:32;19.40;;;17.40;;
21101;SDS011;10709;49.006;12.100;2023-09-12T08:10:58;18.33;;;16.38;;
21101;SDS011;10709;49.006;12.100;2023-09-12T08:13:25;20.88;;;18.67;;
21101;SDS011;10709;49.006;12.100;2023-09-12T08:15:58;19.63;;;17.08;;
21101;SDS011;10709;49.006;12.100;2023-09-12T08:18:29;18.40;;;16.63;;
21101;SDS011;10709;49.006;12.100;2023-09-12T08:20:57;24.20;;;20.30;;
21101;SDS011;10709;49.006;12.100;2023-09-12T08:23:26;19.67;;;17.65;;
21101;SDS011;10709;49.006;12.100;2023-09-12T08:25:52;20.17;;;17.90;;
21101;SDS011;10709;49.006;12.100;2023-09-12T08:28:20;21.30;;;19.20;;
21101;SDS011;10709;49.006;12.100;2023-09-12T08:30:46;19.88;;;17.70;;
21101;SDS011;10709;49.006;12.100;2023-09-12T08:33:13;19.15;;;17.15;;
21101;SDS011;10709;49.006;12.100;2023-09-12T08:35:40;19.80;;;17.80;;
21101;SDS011;10709;49.006;12.100;2023-09-12T08:38:06;22.52;;;19.02;;
21101;SDS011;10709;49.006;12.100;2023-09-12T08:40:34;19.83;;;17.73;;
21101;SDS011;10709;49.006;12.100;2023-09-12T08:43:02;21.30;;;19.00;;
21101;SDS011;10709;49.006;12.100;2023-09-12T08:45:32;19.92;;;17.98;;
21101;SDS011;10709;49.006;12.100;2023-09-12T08:48:00;19.40;;;17.30;;
21101;SDS011;10709;49.006;12.100;2023-09-12T08:50:30;21.50;;;19.13;;
21101;SDS011;10709;49.006;12.100;2023-09-12T08:52:59;18.33;;;16.40;;
21101;SDS011;10709;49.006;12.100;2023-09-12T08:55:33;20.30;;;18.23;;
21101;SDS011;10709;49.006;12.100;2023-09-12T08:58:04;20.48;;;17.35;;
21101;SDS011;10709;49.006;12.100;2023-09-12T09:00:33;20.92;;;15.98;;
21101;SDS011;10709;49.006;12.100;2023-09-12T09:03:02;19.27;;;17.20;;
21101;SDS011;10709;49.006;12.100;2023-09-12T09:05:30;19.90;;;17.27;;
21101;SDS011;10709;49.006;12.100;2023-09-12T09:07:57;20.35;;;16.27;;
21101;SDS011;10709;49.006;12.100;2023-09-12T09:10:25;18.40;;;16.52;;
21101;SDS011;10709;49.006;12.100;2023-09-12T09:13:13;18.88;;;16.02;;
21101;SDS011;10709;49.006;12.100;2023-09-12T09:15:40;19.40;;;17.23;;
21101;SDS011;10709;49.006;12.100;2023-09-12T09:18:09;18.88;;;16.88;;
21101;SDS011;10709;49.006;12.100;2023-09-12T09:20:38;17.35;;;15.65;;
21101;SDS011;10709;49.006;12.100;2023-09-12T09:23:08;18.25;;;16.35;;
21101;SDS011;10709;49.006;12.100;2023-09-12T09:25:39;19.27;;;16.42;;
21101;SDS011;10709;49.006;12.100;2023-09-12T09:28:16;18.60;;;16.67;;
21101;SDS011;10709;49.006;12.100;2023-09-12T09:30:48;17.98;;;16.02;;
21101;SDS011;10709;49.006;12.100;2023-09-12T09:33:17;16.85;;;15.15;;
21101;SDS011;10709;49.006;12.100;2023-09-12T09:35:48;16.83;;;15.13;;
21101;SDS011;10709;49.006;12.100;2023-09-12T09:38:15;18.33;;;16.52;;
21101;SDS011;10709;49.006;12.100;2023-09-12T09:40:46;16.67;;;14.98;;
21101;SDS011;10709;49.006;12.100;2023-09-12T09:43:13;16.10;;;14.23;;
21101;SDS011;10709;49.006;12.100;2023-09-12T09:45:46;17.63;;;15.65;;
21101;SDS011;10709;49.006;12.100;2023-09-12T09:48:20;17.13;;;14.48;;
21101;SDS011;10709;49.006;12.100;2023-09-12T09:50:47;16.83;;;15.02;;
21101;SDS011;10709;49.006;12.100;2023-09-12T09:53:14;16.27;;;14.48;;
21101;SDS011;10709;49.006;12.100;2023-09-12T09:55:41;16.88;;;15.23;;
21101;SDS011;10709;49.006;12.100;2023-09-12T09:58:08;16.67;;;14.98;;
21101;SDS011;10709;49.006;12.100;2023-09-12T10:00:49;16.80;;;15.20;;
21101;SDS011;10709;49.006;12.100;2023-09-12T10:03:18;15.68;;;14.18;;
21101;SDS011;10709;49.006;12.100;2023-09-12T10:05:46;16.95;;;13.52;;
21101;SDS011;10709;49.006;12.100;2023-09-12T10:08:17;15.73;;;14.13;;
21101;SDS011;10709;49.006;12.100;2023-09-12T10:10:45;17.13;;;15.30;;
21101;SDS011;10709;49.006;12.100;2023-09-12T10:13:14;17.35;;;14.82;;
21101;SDS011;10709;49.006;12.100;2023-09-12T10:15:42;18.10;;;14.93;;
21101;SDS011;10709;49.006;12.100;2023-09-12T10:18:12;18.73;;;14.50;;
21101;SDS011;10709;49.006;12.100;2023-09-12T10:20:57;16.98;;;15.35;;
21101;SDS011;10709;49.006;12.100;2023-09-12T10:23:39;15.75;;;14.20;;
21101;SDS011;10709;49.006;12.100;2023-09-12T10:26:11;15.77;;;14.20;;
21101;SDS011;10709;49.006;12.100;2023-09-12T10:28:42;17.58;;;15.63;;
21101;SDS011;10709;49.006;12.100;2023-09-12T10:31:12;15.35;;;13.80;;
21101;SDS011;10709;49.006;12.100;2023-09-12T10:33:39;15.65;;;13.88;;
21101;SDS011;10709;49.006;12.100;2023-09-12T10:36:08;15.93;;;14.23;;
21101;SDS011;10709;49.006;12.100;2023-09-12T10:38:42;15.23;;;13.73;;
21101;SDS011;10709;49.006;12.100;2023-09-12T10:41:11;15.38;;;13.88;;
21101;SDS011;10709;49.006;12.100;2023-09-12T10:43:42;14.55;;;13.07;;
21101;SDS011;10709;49.006;12.100;2023-09-12T10:46:13;13.85;;;12.65;;
21101;SDS011;10709;49.006;12.100;2023-09-12T10:48:39;14.73;;;13.40;;
21101;SDS011;10709;49.006;12.100;2023-09-12T10:51:07;15.43;;;13.93;;
21101;SDS011;10709;49.006;12.100;2023-09-12T10:53:34;15.32;;;13.82;;
21101;SDS011;10709;49.006;12.100;2023-09-12T10:59:08;15.77;;;13.93;;
21101;SDS011;10709;49.006;12.100;2023-09-12T11:01:31;14.05;;;12.82;;
21101;SDS011;10709;49.006;12.100;2023-09-12T11:03:58;14.77;;;13.35;;
21101;SDS011;10709;49.006;12.100;2023-09-12T11:06:29;15.32;;;13.85;;
21101;SDS011;10709;49.006;12.100;2023-09-12T11:11:47;15.70;;;13.90;;
21101;SDS011;10709;49.006;12.100;2023-09-12T11:14:49;15.05;;;13.65;;
21101;SDS011;10709;49.006;12.100;2023-09-12T11:17:38;15.30;;;13.60;;
21101;SDS011;10709;49.006;12.100;2023-09-12T11:20:09;15.93;;;13.05;;
21101;SDS011;10709;49.006;12.100;2023-09-12T11:25:17;14.95;;;13.45;;
21101;SDS011;10709;49.006;12.100;2023-09-12T11:30:21;15.90;;;14.27;;
21101;SDS011;10709;49.006;12.100;2023-09-12T11:32:52;14.60;;;13.20;;
21101;SDS011;10709;49.006;12.100;2023-09-12T11:35:24;14.43;;;13.13;;
21101;SDS011;10709;49.006;12.100;2023-09-12T11:37:56;13.90;;;12.65;;
21101;SDS011;10709;49.006;12.100;2023-09-12T11:40:45;14.25;;;12.85;;
21101;SDS011;10709;49.006;12.100;2023-09-12T11:43:24;14.95;;;13.40;;
21101;SDS011;10709;49.006;12.100;2023-09-12T11:45:52;14.57;;;13.07;;
21101;SDS011;10709;49.006;12.100;2023-09-12T11:48:21;13.43;;;12.13;;
21101;SDS011;10709;49.006;12.100;2023-09-12T11:50:52;13.02;;;11.82;;
21101;SDS011;10709;49.006;12.100;2023-09-12T11:53:26;12.93;;;11.68;;
21101;SDS011;10709;49.006;12.100;2023-09-12T11:55:56;14.40;;;13.00;;
21101;SDS011;10709;49.006;12.100;2023-09-12T11:58:26;14.75;;;12.88;;
21101;SDS011;10709;49.006;12.100;2023-09-12T12:00:56;13.38;;;11.73;;
21101;SDS011;10709;49.006;12.100;2023-09-12T12:03:28;13.30;;;12.00;;
21101;SDS011;10709;49.006;12.100;2023-09-12T12:05:55;12.90;;;11.70;;
21101;SDS011;10709;49.006;12.100;2023-09-12T12:08:22;12.52;;;11.43;;
21101;SDS011;10709;49.006;12.100;2023-09-12T12:10:52;12.63;;;10.95;;
21101;SDS011;10709;49.006;12.100;2023-09-12T12:13:20;11.77;;;10.68;;
21101;SDS011;10709;49.006;12.100;2023-09-12T12:15:47;11.15;;;10.15;;
21101;SDS011;10709;49.006;12.100;2023-09-12T12:18:14;11.00;;;9.70;;
21101;SDS011;10709;49.006;12.100;2023-09-12T12:20:41;10.85;;;9.85;;
21101;SDS011;10709;49.006;12.100;2023-09-12T12:23:08;10.95;;;10.05;;
21101;SDS011;10709;49.006;12.100;2023-09-12T12:25:35;11.30;;;10.20;;
21101;SDS011;10709;49.006;12.100;2023-09-12T12:28:02;10.13;;;8.85;;
21101;SDS011;10709;49.006;12.100;2023-09-12T12:30:30;10.38;;;9.27;;
21101;SDS011;10709;49.006;12.100;2023-09-12T12:33:00;10.65;;;9.68;;
21101;SDS011;10709;49.006;12.100;2023-09-12T12:35:48;10.30;;;9.30;;
21101;SDS011;10709;49.006;12.100;2023-09-12T12:38:20;13.88;;;9.70;;
21101;SDS011;10709;49.006;12.100;2023-09-12T12:40:47;12.02;;;9.57;;
21101;SDS011;10709;49.006;12.100;2023-09-12T12:43:16;10.35;;;9.45;;
21101;SDS011;10709;49.006;12.100;2023-09-12T12:45:53;10.43;;;9.32;;
21101;SDS011;10709;49.006;12.100;2023-09-12T12:50:58;11.02;;;10.02;;
21101;SDS011;10709;49.006;12.100;2023-09-12T12:53:38;11.65;;;9.85;;
21101;SDS011;10709;49.006;12.100;2023-09-12T12:56:19;9.90;;;9.00;;
21101;SDS011;10709;49.006;12.100;2023-09-12T12:58:52;9.73;;;8.88;;
21101;SDS011;10709;49.006;12.100;2023-09-12T13:01:22;9.88;;;8.95;;
21101;SDS011;10709;49.006;12.100;2023-09-12T13:03:49;10.07;;;9.07;;
21101;SDS011;10709;49.006;12.100;2023-09-12T13:06:17;9.80;;;8.77;;
21101;SDS011;10709;49.006;12.100;2023-09-12T13:08:45;10.75;;;9.32;;
21101;SDS011;10709;49.006;12.100;2023-09-12T13:11:14;10.60;;;9.05;;
21101;SDS011;10709;49.006;12.100;2023-09-12T13:13:43;10.60;;;8.60;;
21101;SDS011;10709;49.006;12.100;2023-09-12T13:16:13;10.93;;;9.70;;
21101;SDS011;10709;49.006;12.100;2023-09-12T13:18:42;12.43;;;10.15;;
21101;SDS011;10709;49.006;12.100;2023-09-12T13:21:09;10.40;;;9.35;;
21101;SDS011;10709;49.006;12.100;2023-09-12T13:23:37;9.73;;;8.82;;
21101;SDS011;10709;49.006;12.100;2023-09-12T13:26:06;10.68;;;9.43;;
21101;SDS011;10709;49.006;12.100;2023-09-12T13:28:36;12.15;;;9.43;;
21101;SDS011;10709;49.006;12.100;2023-09-12T13:31:03;11.43;;;9.00;;
21101;SDS011;10709;49.006;12.100;2023-09-12T13:33:30;10.65;;;9.55;;
21101;SDS011;10709;49.006;12.100;2023-09-12T13:36:04;10.65;;;9.50;;
21101;SDS011;10709;49.006;12.100;2023-09-12T13:38:31;11.55;;;9.48;;
21101;SDS011;10709;49.006;12.100;2023-09-12T13:40:57;11.02;;;9.93;;
21101;SDS011;10709;49.006;12.100;2023-09-12T13:43:24;11.63;;;9.82;;
21101;SDS011;10709;49.006;12.100;2023-09-12T13:45:50;11.23;;;9.90;;
21101;SDS011;10709;49.006;12.100;2023-09-12T13:48:17;10.93;;;9.82;;
21101;SDS011;10709;49.006;12.100;2023-09-12T13:50:44;10.35;;;9.25;;
21101;SDS011;10709;49.006;12.100;2023-09-12T13:53:11;10.73;;;9.25;;
21101;SDS011;10709;49.006;12.100;2023-09-12T13:55:38;10.13;;;9.13;;
21101;SDS011;10709;49.006;12.100;2023-09-12T13:58:25;11.20;;;8.95;;
21101;SDS011;10709;49.006;12.100;2023-09-12T14:01:01;11.32;;;9.63;;
21101;SDS011;10709;49.006;12.100;2023-09-12T14:03:29;10.98;;;9.40;;
21101;SDS011;10709;49.006;12.100;2023-09-12T14:05:58;12.43;;;9.50;;
21101;SDS011;10709;49.006;12.100;2023-09-12T14:08:25;9.65;;;8.70;;
21101;SDS011;10709;49.006;12.100;2023-09-12T14:10:52;9.60;;;8.70;;
21101;SDS011;10709;49.006;12.100;2023-09-12T14:13:19;10.85;;;8.80;;
21101;SDS011;10709;49.006;12.100;2023-09-12T14:15:49;11.50;;;10.07;;
21101;SDS011;10709;49.006;12.100;2023-09-12T14:18:20;11.48;;;10.38;;
21101;SDS011;10709;49.006;12.100;2023-09-12T14:20:48;13.02;;;10.55;;
21101;SDS011;10709;49.006;12.100;2023-09-12T14:23:16;11.35;;;10.32;;
21101;SDS011;10709;49.006;12.100;2023-09-12T14:25:44;13.82;;;10.45;;
21101;SDS011;10709;49.006;12.100;2023-09-12T14:28:12;12.07;;;10.98;;
21101;SDS011;10709;49.006;12.100;2023-09-12T14:30:40;11.27;;;10.15;;
21101;SDS011;10709;49.006;12.100;2023-09-12T14:33:11;11.48;;;10.27;;
21101;SDS011;10709;49.006;12.100;2023-09-12T14:35:42;12.57;;;10.90;;